White Bluff, TN (37187)

4:37 PM CDT on October 31, 2014 (GMT -0500)
White Bluff | Change Station
CLOSE
Current Station
Personal Weather Station
Location: White Bluff, TN
Elevation: 823 ft
Nearby Weather Stations
Active Advisory: Freeze Warning, Special Statement

Elev 823 ft 36.11 °N, 87.21 °W | Updated 11 seconds ago

Overcast
Overcast
44.8 °F
Feels Like 40 °F
N
8.3
Wind Variable Wind from NW
Gusts 9.8 mph

Today
High -- | Low -- °F
--% Chance of Precip.
Yesterday
High -- | Low -- °F
Precip. -- in
7:10 AM 5:53 PM
First Quarter, 59% visible
Pressure 30.06 in
Visibility 10.0 miles
Clouds Mostly Cloudy 2000 ft
Mostly Cloudy 2700 ft
Overcast 4000 ft
Windchill 40 °F
Dew Point 34 °F
Humidity 67%
Rainfall 0.00 in
Snow Depth Not available.
UV 0 out of 12
Pollen .30 out of 12
Air Quality Not available.
Flu Activity Not available.
METAR KBNA 312053Z 34010G16KT 10SM BKN020 BKN027 OVC040 06/03 A3006 RMK AO2 RAB17E26 SLP180 P0000 60000 T00610028 53017

More Conditions Fewer Conditions

Pressure 30.06 in
Visibility 10.0 miles
Clouds Mostly Cloudy 2000 ft
Mostly Cloudy 2700 ft
Overcast 4000 ft
Windchill 40 °F
Dew Point 34 °F
Humidity 67%
Rainfall 0.00 in
Snow Depth Not available.
UV 0 out of 12
Pollen .30 out of 12
Air Quality Not available.
Flu Activity Not available.
METAR KBNA 312053Z 34010G16KT 10SM BKN020 BKN027 OVC040 06/03 A3006 RMK AO2 RAB17E26 SLP180 P0000 60000 T00610028 53017

More Conditions Fewer Conditions

10-Day Weather Forecast

Almanac

Astronomy

Oct. 31, 2014 Rise Set
Actual Time
Civil Twilight
Nautical Twilight
Astronomical Twilight
Moon
Length of Visible Light
Length of Day
Tomorrow will be .
, % of the Moon is Illuminated

Today's Extremes

State Highs State Lows

Community

WunderPhotos

Upload Photos

1,766,738 photos uploaded!

WunderBlogs® & News

Nearby

Air Quality

  Air Quality AQ Index Pollutant
Not available.

Snow Depth

Station Depth Elevation

Earthquake Activity

City Distance Mag. Time & Date
Minimum magnitude displayed is 2.5.

Coastal Water Temperatures

Place Temperature

Nearby Weather Stations